sensor_id;sensor_type;location;lat;lon;timestamp;pressure;altitude;pressure_sealevel;temperature;humidity
66398;BME280;54877;51.504;3.894;2023-12-22T00:01:38;123588.91;;;-153.40;47.99
66398;BME280;54877;51.504;3.894;2023-12-22T00:04:25;123605.25;;;-153.40;48.24
66398;BME280;54877;51.504;3.894;2023-12-22T00:07:00;123643.53;;;-153.54;48.83
66398;BME280;54877;51.504;3.894;2023-12-22T00:09:28;123632.53;;;-153.43;48.84
66398;BME280;54877;51.504;3.894;2023-12-22T00:12:10;123629.81;;;-153.43;49.00
66398;BME280;54877;51.504;3.894;2023-12-22T00:14:38;123643.47;;;-153.46;49.02
66398;BME280;54877;51.504;3.894;2023-12-22T00:17:24;123643.50;;;-153.50;48.83
66398;BME280;54877;51.504;3.894;2023-12-22T00:19:52;123648.91;;;-153.44;48.16
66398;BME280;54877;51.504;3.894;2023-12-22T00:22:18;123643.47;;;-153.49;48.53
66398;BME280;54877;51.504;3.894;2023-12-22T00:24:44;123643.47;;;-153.47;48.38
66398;BME280;54877;51.504;3.894;2023-12-22T00:27:14;123632.53;;;-153.42;48.01
66398;BME280;54877;51.504;3.894;2023-12-22T00:29:39;123632.56;;;-153.46;46.93
66398;BME280;54877;51.504;3.894;2023-12-22T00:32:10;123635.31;;;-153.51;46.57
66398;BME280;54877;51.504;3.894;2023-12-22T00:34:55;123621.59;;;-153.37;46.27
66398;BME280;54877;51.504;3.894;2023-12-22T00:37:45;123610.69;;;-153.38;46.03
66398;BME280;54877;51.504;3.894;2023-12-22T00:40:10;123616.16;;;-153.37;45.12
66398;BME280;54877;51.504;3.894;2023-12-22T00:42:51;123610.66;;;-153.32;45.23
66398;BME280;54877;51.504;3.894;2023-12-22T00:45:18;123599.75;;;-153.31;44.82
66398;BME280;54877;51.504;3.894;2023-12-22T00:47:49;123618.88;;;-153.36;44.73
66398;BME280;54877;51.504;3.894;2023-12-22T00:50:38;123599.78;;;-153.34;44.50
66398;BME280;54877;51.504;3.894;2023-12-22T00:53:07;123594.34;;;-153.36;44.71
66398;BME280;54877;51.504;3.894;2023-12-22T00:55:36;123588.84;;;-153.30;45.22
66398;BME280;54877;51.504;3.894;2023-12-22T00:58:23;123610.69;;;-153.35;45.73
66398;BME280;54877;51.504;3.894;2023-12-22T01:00:49;123588.81;;;-153.25;45.97
66398;BME280;54877;51.504;3.894;2023-12-22T01:03:19;123594.28;;;-153.29;46.88
66398;BME280;54877;51.504;3.894;2023-12-22T01:05:45;123616.09;;;-153.30;47.55
66398;BME280;54877;51.504;3.894;2023-12-22T01:08:36;123637.97;;;-153.41;48.35
66398;BME280;54877;51.504;3.894;2023-12-22T01:11:16;123632.50;;;-153.37;48.51
66398;BME280;54877;51.504;3.894;2023-12-22T01:13:55;123632.50;;;-153.39;48.58
66398;BME280;54877;51.504;3.894;2023-12-22T01:16:22;123637.97;;;-153.41;48.46
66398;BME280;54877;51.504;3.894;2023-12-22T01:21:45;123629.81;;;-153.41;48.69
66398;BME280;54877;51.504;3.894;2023-12-22T01:25:01;123643.44;;;-153.44;48.37
66398;BME280;54877;51.504;3.894;2023-12-22T01:30:56;123676.22;;;-153.55;47.90
66398;BME280;54877;51.504;3.894;2023-12-22T01:33:40;123687.16;;;-153.61;47.49
66398;BME280;54877;51.504;3.894;2023-12-22T01:36:10;123668.00;;;-153.47;47.53
66398;BME280;54877;51.504;3.894;2023-12-22T01:38:41;123673.44;;;-153.46;47.47
66398;BME280;54877;51.504;3.894;2023-12-22T01:41:26;123714.34;;;-153.53;47.36
66398;BME280;54877;51.504;3.894;2023-12-22T01:44:02;123684.38;;;-153.51;47.20
66398;BME280;54877;51.504;3.894;2023-12-22T01:46:27;123678.94;;;-153.53;47.33
66398;BME280;54877;51.504;3.894;2023-12-22T01:49:04;123698.06;;;-153.59;47.09
66398;BME280;54877;51.504;3.894;2023-12-22T01:52:15;123703.53;;;-153.63;47.03
66398;BME280;54877;51.504;3.894;2023-12-22T01:57:55;123681.66;;;-153.51;47.07
66398;BME280;54877;51.504;3.894;2023-12-22T02:06:52;123695.28;;;-153.51;48.03
66398;BME280;54877;51.504;3.894;2023-12-22T02:09:36;123708.91;;;-153.52;48.21
66398;BME280;54877;51.504;3.894;2023-12-22T02:12:06;123714.41;;;-153.59;48.58
66398;BME280;54877;51.504;3.894;2023-12-22T02:14:53;123722.59;;;-153.60;48.85
66398;BME280;54877;51.504;3.894;2023-12-22T02:20:43;123692.56;;;-153.54;48.97
66398;BME280;54877;51.504;3.894;2023-12-22T02:23:09;123708.97;;;-153.60;48.91
66398;BME280;54877;51.504;3.894;2023-12-22T02:33:42;123725.38;;;-153.71;48.73
66398;BME280;54877;51.504;3.894;2023-12-22T02:36:32;123722.66;;;-153.72;48.84
66398;BME280;54877;51.504;3.894;2023-12-22T02:39:46;123730.78;;;-153.65;48.46
66398;BME280;54877;51.504;3.894;2023-12-22T02:42:56;123736.28;;;-153.69;48.25
66398;BME280;54877;51.504;3.894;2023-12-22T02:45:27;123730.84;;;-153.72;48.36
66398;BME280;54877;51.504;3.894;2023-12-22T02:48:18;123719.88;;;-153.60;48.33
66398;BME280;54877;51.504;3.894;2023-12-22T02:54:27;123730.78;;;-153.64;48.24
66398;BME280;54877;51.504;3.894;2023-12-22T02:57:00;123719.88;;;-153.62;48.34
66398;BME280;54877;51.504;3.894;2023-12-22T02:59:34;123725.31;;;-153.62;48.50
66398;BME280;54877;51.504;3.894;2023-12-22T03:02:03;123703.44;;;-153.52;48.72
66398;BME280;54877;51.504;3.894;2023-12-22T03:04:34;123703.47;;;-153.54;49.07
66398;BME280;54877;51.504;3.894;2023-12-22T03:07:00;123698.03;;;-153.54;49.25
66398;BME280;54877;51.504;3.894;2023-12-22T03:09:28;123681.63;;;-153.49;49.37
66398;BME280;54877;51.504;3.894;2023-12-22T03:11:58;123706.22;;;-153.57;49.62
66398;BME280;54877;51.504;3.894;2023-12-22T03:14:28;123692.59;;;-153.56;49.77
66398;BME280;54877;51.504;3.894;2023-12-22T03:17:16;123698.06;;;-153.59;49.97
66398;BME280;54877;51.504;3.894;2023-12-22T03:19:42;123698.03;;;-153.57;50.09
66398;BME280;54877;51.504;3.894;2023-12-22T03:22:09;123709.00;;;-153.64;50.47
66398;BME280;54877;51.504;3.894;2023-12-22T03:27:38;123741.81;;;-153.80;51.02
66398;BME280;54877;51.504;3.894;2023-12-22T03:32:54;123741.84;;;-153.86;51.03
66398;BME280;54877;51.504;3.894;2023-12-22T03:35:36;123760.94;;;-153.89;50.95
66398;BME280;54877;51.504;3.894;2023-12-22T03:38:38;123752.72;;;-153.83;50.81
66398;BME280;54877;51.504;3.894;2023-12-22T03:41:28;123758.19;;;-153.86;50.69
66398;BME280;54877;51.504;3.894;2023-12-22T03:52:36;123720.00;;;-153.78;50.19
66398;BME280;54877;51.504;3.894;2023-12-22T03:55:42;123730.88;;;-153.77;50.07
66398;BME280;54877;51.504;3.894;2023-12-22T03:58:26;123733.59;;;-153.75;49.93
66398;BME280;54877;51.504;3.894;2023-12-22T04:01:37;123739.00;;;-153.72;49.80
66398;BME280;54877;51.504;3.894;2023-12-22T04:04:02;123725.38;;;-153.68;49.73
66398;BME280;54877;51.504;3.894;2023-12-22T04:06:43;123714.41;;;-153.61;49.57
66398;BME280;54877;51.504;3.894;2023-12-22T04:09:47;123695.34;;;-153.62;49.45
66398;BME280;54877;51.504;3.894;2023-12-22T04:12:22;123698.06;;;-153.60;49.19
66398;BME280;54877;51.504;3.894;2023-12-22T04:14:50;123698.06;;;-153.62;48.91
66398;BME280;54877;51.504;3.894;2023-12-22T04:17:21;123681.66;;;-153.52;48.64
66398;BME280;54877;51.504;3.894;2023-12-22T04:19:47;123673.44;;;-153.48;48.56
66398;BME280;54877;51.504;3.894;2023-12-22T04:22:14;123684.41;;;-153.57;48.27
66398;BME280;54877;51.504;3.894;2023-12-22T04:24:55;123681.63;;;-153.47;48.25
66398;BME280;54877;51.504;3.894;2023-12-22T04:30:30;123681.63;;;-153.47;48.32
66398;BME280;54877;51.504;3.894;2023-12-22T04:34:03;123670.75;;;-153.53;48.52
66398;BME280;54877;51.504;3.894;2023-12-22T04:36:59;123676.19;;;-153.52;48.49
66398;BME280;54877;51.504;3.894;2023-12-22T04:39:27;123667.97;;;-153.45;48.44
66398;BME280;54877;51.504;3.894;2023-12-22T04:44:58;123665.22;;;-153.42;48.28
66398;BME280;54877;51.504;3.894;2023-12-22T04:47:39;123659.78;;;-153.40;48.36
66398;BME280;54877;51.504;3.894;2023-12-22T04:50:15;123654.28;;;-153.37;48.25
66398;BME280;54877;51.504;3.894;2023-12-22T04:52:46;123643.38;;;-153.35;48.15
66398;BME280;54877;51.504;3.894;2023-12-22T04:55:37;123637.94;;;-153.34;48.36
66398;BME280;54877;51.504;3.894;2023-12-22T04:58:12;123648.84;;;-153.36;48.47
66398;BME280;54877;51.504;3.894;2023-12-22T05:00:41;123651.59;;;-153.39;48.62
66398;BME280;54877;51.504;3.894;2023-12-22T05:03:18;123662.47;;;-153.38;48.71
66398;BME280;54877;51.504;3.894;2023-12-22T05:06:05;123657.03;;;-153.40;48.88
66398;BME280;54877;51.504;3.894;2023-12-22T05:09:00;123651.59;;;-153.38;48.75
66398;BME280;54877;51.504;3.894;2023-12-22T05:11:45;123659.78;;;-153.42;48.83
66398;BME280;54877;51.504;3.894;2023-12-22T05:14:42;123654.34;;;-153.45;48.78
66398;BME280;54877;51.504;3.894;2023-12-22T05:17:17;123651.59;;;-153.40;48.67
66398;BME280;54877;51.504;3.894;2023-12-22T05:20:07;123668.00;;;-153.47;48.63
66398;BME280;54877;51.504;3.894;2023-12-22T05:23:03;123643.41;;;-153.38;48.57
66398;BME280;54877;51.504;3.894;2023-12-22T05:25:55;123648.84;;;-153.39;48.51
66398;BME280;54877;51.504;3.894;2023-12-22T05:28:21;123646.16;;;-153.40;48.67
66398;BME280;54877;51.504;3.894;2023-12-22T05:30:48;123654.31;;;-153.42;48.71
66398;BME280;54877;51.504;3.894;2023-12-22T05:33:58;123662.47;;;-153.37;48.81
66398;BME280;54877;51.504;3.894;2023-12-22T05:36:37;123643.38;;;-153.36;48.73
66398;BME280;54877;51.504;3.894;2023-12-22T05:39:12;123635.19;;;-153.34;48.75
66398;BME280;54877;51.504;3.894;2023-12-22T05:41:57;123627.03;;;-153.35;48.87
66398;BME280;54877;51.504;3.894;2023-12-22T05:44:28;123637.94;;;-153.37;48.99
66398;BME280;54877;51.504;3.894;2023-12-22T05:47:01;123643.38;;;-153.36;48.97
66398;BME280;54877;51.504;3.894;2023-12-22T05:50:04;123627.03;;;-153.35;49.02
66398;BME280;54877;51.504;3.894;2023-12-22T05:52:33;123624.28;;;-153.29;48.99
66398;BME280;54877;51.504;3.894;2023-12-22T05:55:01;123624.28;;;-153.31;49.01
66398;BME280;54877;51.504;3.894;2023-12-22T05:57:32;123616.06;;;-153.25;48.77
66398;BME280;54877;51.504;3.894;2023-12-22T06:02:47;123610.59;;;-153.22;48.69
66398;BME280;54877;51.504;3.894;2023-12-22T06:05:17;123610.63;;;-153.26;48.81
66398;BME280;54877;51.504;3.894;2023-12-22T06:07:44;123602.38;;;-153.18;48.90
66398;BME280;54877;51.504;3.894;2023-12-22T06:10:09;123610.59;;;-153.22;49.10
66398;BME280;54877;51.504;3.894;2023-12-22T06:12:37;123610.63;;;-153.26;49.20
66398;BME280;54877;51.504;3.894;2023-12-22T06:15:05;123599.69;;;-153.23;49.42
66398;BME280;54877;51.504;3.894;2023-12-22T06:20:27;123602.41;;;-153.22;49.57
66398;BME280;54877;51.504;3.894;2023-12-22T06:23:15;123616.06;;;-153.27;49.81
66398;BME280;54877;51.504;3.894;2023-12-22T06:25:42;123616.09;;;-153.28;49.91
66398;BME280;54877;51.504;3.894;2023-12-22T06:28:07;123627.06;;;-153.37;50.21
66398;BME280;54877;51.504;3.894;2023-12-22T06:30:34;123616.09;;;-153.28;50.26
66398;BME280;54877;51.504;3.894;2023-12-22T06:33:07;123610.63;;;-153.27;50.33
66398;BME280;54877;51.504;3.894;2023-12-22T06:35:37;123621.56;;;-153.34;50.77
66398;BME280;54877;51.504;3.894;2023-12-22T06:38:47;123637.97;;;-153.39;50.95
66398;BME280;54877;51.504;3.894;2023-12-22T06:41:42;123643.38;;;-153.36;50.87
66398;BME280;54877;51.504;3.894;2023-12-22T06:44:27;123637.94;;;-153.36;50.92
66398;BME280;54877;51.504;3.894;2023-12-22T06:46:56;123654.31;;;-153.40;50.95
66398;BME280;54877;51.504;3.894;2023-12-22T06:50:08;123651.59;;;-153.41;51.18
66398;BME280;54877;51.504;3.894;2023-12-22T06:55:57;123637.97;;;-153.41;51.75
66398;BME280;54877;51.504;3.894;2023-12-22T06:58:57;123632.53;;;-153.41;52.19
66398;BME280;54877;51.504;3.894;2023-12-22T07:01:34;123648.91;;;-153.46;52.68
66398;BME280;54877;51.504;3.894;2023-12-22T07:04:01;123627.03;;;-153.34;52.67
66398;BME280;54877;51.504;3.894;2023-12-22T07:06:31;123657.06;;;-153.41;53.35
66398;BME280;54877;51.504;3.894;2023-12-22T07:09:34;123648.91;;;-153.44;53.79
66398;BME280;54877;51.504;3.894;2023-12-22T07:12:05;123643.44;;;-153.44;53.96
66398;BME280;54877;51.504;3.894;2023-12-22T07:14:41;123646.16;;;-153.43;54.19
66398;BME280;54877;51.504;3.894;2023-12-22T07:19:58;123646.16;;;-153.42;54.44
66398;BME280;54877;51.504;3.894;2023-12-22T07:28:10;123676.25;;;-153.61;55.70
66398;BME280;54877;51.504;3.894;2023-12-22T07:30:41;123659.84;;;-153.52;55.88
66398;BME280;54877;51.504;3.894;2023-12-22T07:34:00;123654.41;;;-153.51;55.88
66398;BME280;54877;51.504;3.894;2023-12-22T07:52:36;123632.56;;;-153.48;57.44
66398;BME280;54877;51.504;3.894;2023-12-22T09:45:32;123564.00;;;-152.82;55.38
66398;BME280;54877;51.504;3.894;2023-12-22T09:48:36;123533.94;;;-152.72;55.14
66398;BME280;54877;51.504;3.894;2023-12-22T09:51:07;123533.94;;;-152.69;55.14
66398;BME280;54877;51.504;3.894;2023-12-22T09:54:08;123531.16;;;-152.64;54.91
66398;BME280;54877;51.504;3.894;2023-12-22T10:05:21;123520.22;;;-152.58;54.64
66398;BME280;54877;51.504;3.894;2023-12-22T10:07:47;123520.22;;;-152.60;54.49
66398;BME280;54877;51.504;3.894;2023-12-22T10:10:12;123517.47;;;-152.54;54.50
66398;BME280;54877;51.504;3.894;2023-12-22T10:12:38;123520.22;;;-152.59;54.71
66398;BME280;54877;51.504;3.894;2023-12-22T10:15:04;123512.03;;;-152.57;54.38
66398;BME280;54877;51.504;3.894;2023-12-22T10:17:30;123501.06;;;-152.45;54.34
66398;BME280;54877;51.504;3.894;2023-12-22T10:19:55;123503.81;;;-152.49;54.43
66398;BME280;54877;51.504;3.894;2023-12-22T10:22:20;123503.78;;;-152.45;54.37
66398;BME280;54877;51.504;3.894;2023-12-22T10:24:48;123512.00;;;-152.51;54.58
66398;BME280;54877;51.504;3.894;2023-12-22T10:27:17;123512.00;;;-152.50;54.62
66398;BME280;54877;51.504;3.894;2023-12-22T10:29:48;123522.94;;;-152.56;54.68
66398;BME280;54877;51.504;3.894;2023-12-22T10:32:14;123509.28;;;-152.52;54.61
66398;BME280;54877;51.504;3.894;2023-12-22T10:34:39;123506.59;;;-152.56;54.73
66398;BME280;54877;51.504;3.894;2023-12-22T10:37:05;123520.22;;;-152.59;55.10
66398;BME280;54877;51.504;3.894;2023-12-22T10:39:30;123544.81;;;-152.66;55.33
66398;BME280;54877;51.504;3.894;2023-12-22T10:41:56;123544.78;;;-152.65;55.27
66398;BME280;54877;51.504;3.894;2023-12-22T10:44:25;123552.97;;;-152.65;55.29
66398;BME280;54877;51.504;3.894;2023-12-22T10:46:51;123539.34;;;-152.65;55.03
66398;BME280;54877;51.504;3.894;2023-12-22T10:49:16;123533.91;;;-152.67;55.04
66398;BME280;54877;51.504;3.894;2023-12-22T10:51:42;123528.44;;;-152.62;54.67
66398;BME280;54877;51.504;3.894;2023-12-22T10:54:07;123517.47;;;-152.56;54.44
66398;BME280;54877;51.504;3.894;2023-12-22T10:56:32;123512.03;;;-152.55;54.05
66398;BME280;54877;51.504;3.894;2023-12-22T10:58:58;123495.66;;;-152.54;54.04
66398;BME280;54877;51.504;3.894;2023-12-22T11:01:24;123490.19;;;-152.49;53.93
66398;BME280;54877;51.504;3.894;2023-12-22T11:03:53;123465.56;;;-152.35;53.75
66398;BME280;54877;51.504;3.894;2023-12-22T11:06:23;123473.81;;;-152.44;53.81
66398;BME280;54877;51.504;3.894;2023-12-22T11:09:10;123479.25;;;-152.42;53.65
66398;BME280;54877;51.504;3.894;2023-12-22T11:11:48;123479.22;;;-152.41;53.71
66398;BME280;54877;51.504;3.894;2023-12-22T11:14:47;123476.50;;;-152.40;53.41
66398;BME280;54877;51.504;3.894;2023-12-22T11:17:34;123479.25;;;-152.44;53.45
66398;BME280;54877;51.504;3.894;2023-12-22T11:20:05;123481.97;;;-152.42;53.46
66398;BME280;54877;51.504;3.894;2023-12-22T11:22:42;123476.50;;;-152.39;53.48
66398;BME280;54877;51.504;3.894;2023-12-22T11:25:21;123471.03;;;-152.37;53.25
66398;BME280;54877;51.504;3.894;2023-12-22T11:28:00;123460.13;;;-152.36;53.09
66398;BME280;54877;51.504;3.894;2023-12-22T11:30:30;123430.09;;;-152.30;53.10
66398;BME280;54877;51.504;3.894;2023-12-22T11:33:10;123457.31;;;-152.27;53.01
66398;BME280;54877;51.504;3.894;2023-12-22T11:44:25;123446.44;;;-152.30;52.79
66398;BME280;54877;51.504;3.894;2023-12-22T11:49:46;123454.63;;;-152.31;52.81
66398;BME280;54877;51.504;3.894;2023-12-22T12:01:26;123446.44;;;-152.30;52.84
66398;BME280;54877;51.504;3.894;2023-12-22T12:04:19;123443.78;;;-152.37;53.12
66398;BME280;54877;51.504;3.894;2023-12-22T12:16:07;123451.94;;;-152.36;52.97
66398;BME280;54877;51.504;3.894;2023-12-22T12:18:53;123446.44;;;-152.27;52.79
66398;BME280;54877;51.504;3.894;2023-12-22T12:21:19;123430.06;;;-152.23;52.73
66398;BME280;54877;51.504;3.894;2023-12-22T12:23:52;123454.63;;;-152.32;52.90
66398;BME280;54877;51.504;3.894;2023-12-22T12:26:37;123476.47;;;-152.35;52.90
66398;BME280;54877;51.504;3.894;2023-12-22T12:29:04;123449.16;;;-152.26;52.93
66398;BME280;54877;51.504;3.894;2023-12-22T12:32:02;123454.63;;;-152.28;52.97
66398;BME280;54877;51.504;3.894;2023-12-22T12:34:49;123457.38;;;-152.31;52.94
66398;BME280;54877;51.504;3.894;2023-12-22T12:37:16;123446.44;;;-152.26;52.91
66398;BME280;54877;51.504;3.894;2023-12-22T12:39:44;123451.88;;;-152.27;52.82
66398;BME280;54877;51.504;3.894;2023-12-22T12:42:45;123457.38;;;-152.34;52.76
66398;BME280;54877;51.504;3.894;2023-12-22T12:45:51;123460.13;;;-152.36;52.66
66398;BME280;54877;51.504;3.894;2023-12-22T12:48:27;123451.94;;;-152.36;52.56
66398;BME280;54877;51.504;3.894;2023-12-22T12:51:16;123438.31;;;-152.34;52.48
66398;BME280;54877;51.504;3.894;2023-12-22T12:54:25;123471.06;;;-152.43;52.46
66398;BME280;54877;51.504;3.894;2023-12-22T12:57:16;123446.50;;;-152.37;52.39
66398;BME280;54877;51.504;3.894;2023-12-22T13:00:29;123468.34;;;-152.44;52.56
66398;BME280;54877;51.504;3.894;2023-12-22T13:03:03;123479.25;;;-152.45;52.51
66398;BME280;54877;51.504;3.894;2023-12-22T13:06:05;123473.81;;;-152.45;52.50
66398;BME280;54877;51.504;3.894;2023-12-22T13:08:33;123468.34;;;-152.43;52.35
66398;BME280;54877;51.504;3.894;2023-12-22T13:11:28;123473.78;;;-152.43;52.44
66398;BME280;54877;51.504;3.894;2023-12-22T13:17:30;123462.91;;;-152.43;52.33
66398;BME280;54877;51.504;3.894;2023-12-22T13:23:24;123468.28;;;-152.35;52.26
66398;BME280;54877;51.504;3.894;2023-12-22T13:26:23;123457.41;;;-152.37;52.23
66398;BME280;54877;51.504;3.894;2023-12-22T13:28:58;123471.00;;;-152.35;52.24
66398;BME280;54877;51.504;3.894;2023-12-22T13:31:46;123446.44;;;-152.26;52.05
66398;BME280;54877;51.504;3.894;2023-12-22T13:34:17;123446.47;;;-152.31;52.18
66398;BME280;54877;51.504;3.894;2023-12-22T13:36:46;123446.50;;;-152.36;52.04
66398;BME280;54877;51.504;3.894;2023-12-22T13:42:17;123457.38;;;-152.32;51.75
66398;BME280;54877;51.504;3.894;2023-12-22T13:44:54;123462.81;;;-152.33;51.82
66398;BME280;54877;51.504;3.894;2023-12-22T13:50:19;123468.25;;;-152.30;51.70
66398;BME280;54877;51.504;3.894;2023-12-22T13:53:13;123457.34;;;-152.29;51.71
66398;BME280;54877;51.504;3.894;2023-12-22T13:58:15;123473.69;;;-152.30;51.57
66398;BME280;54877;51.504;3.894;2023-12-22T14:04:08;123465.47;;;-152.22;51.37
66398;BME280;54877;51.504;3.894;2023-12-22T15:57:55;123610.03;;;-152.41;50.73
66398;BME280;54877;51.504;3.894;2023-12-22T16:31:53;123670.06;;;-152.54;50.94
66398;BME280;54877;51.504;3.894;2023-12-22T17:14:26;123680.88;;;-152.43;50.74
66398;BME280;54877;51.504;3.894;2023-12-22T17:16:51;123675.44;;;-152.42;50.93
66398;BME280;54877;51.504;3.894;2023-12-22T17:19:16;123672.69;;;-152.39;50.88
66398;BME280;54877;51.504;3.894;2023-12-22T17:21:42;123675.41;;;-152.39;50.79
66398;BME280;54877;51.504;3.894;2023-12-22T17:24:08;123675.41;;;-152.39;50.83
66398;BME280;54877;51.504;3.894;2023-12-22T17:26:33;123694.53;;;-152.46;50.82
66398;BME280;54877;51.504;3.894;2023-12-22T17:28:58;123686.34;;;-152.45;50.82
66398;BME280;54877;51.504;3.894;2023-12-22T17:31:24;123697.25;;;-152.45;50.79
66398;BME280;54877;51.504;3.894;2023-12-22T17:33:49;123691.78;;;-152.44;50.71
66398;BME280;54877;51.504;3.894;2023-12-22T17:36:14;123699.97;;;-152.44;50.71
66398;BME280;54877;51.504;3.894;2023-12-22T17:38:39;123702.72;;;-152.49;50.74
66398;BME280;54877;51.504;3.894;2023-12-22T17:41:05;123719.09;;;-152.51;50.71
66398;BME280;54877;51.504;3.894;2023-12-22T17:43:30;123719.13;;;-152.57;50.85
66398;BME280;54877;51.504;3.894;2023-12-22T17:45:55;123721.84;;;-152.55;50.63
66398;BME280;54877;51.504;3.894;2023-12-22T17:48:21;123713.63;;;-152.47;50.60
66398;BME280;54877;51.504;3.894;2023-12-22T17:50:46;123735.50;;;-152.60;50.79
66398;BME280;54877;51.504;3.894;2023-12-22T17:53:12;123746.41;;;-152.61;50.83
66398;BME280;54877;51.504;3.894;2023-12-22T17:55:37;123770.97;;;-152.66;50.93
66398;BME280;54877;51.504;3.894;2023-12-22T17:58:02;123768.25;;;-152.65;50.81
66398;BME280;54877;51.504;3.894;2023-12-22T18:00:27;123746.41;;;-152.58;50.73
66398;BME280;54877;51.504;3.894;2023-12-22T18:02:53;123751.84;;;-152.59;50.78
66398;BME280;54877;51.504;3.894;2023-12-22T18:05:18;123746.38;;;-152.56;50.87
66398;BME280;54877;51.504;3.894;2023-12-22T18:07:44;123740.88;;;-152.47;50.90
66398;BME280;54877;51.504;3.894;2023-12-22T18:10:09;123751.78;;;-152.50;51.08
66398;BME280;54877;51.504;3.894;2023-12-22T18:12:35;123762.75;;;-152.60;51.40
66398;BME280;54877;51.504;3.894;2023-12-22T18:15:00;123781.84;;;-152.60;51.48
66398;BME280;54877;51.504;3.894;2023-12-22T18:17:25;123779.16;;;-152.66;51.46
66398;BME280;54877;51.504;3.894;2023-12-22T18:19:51;123779.16;;;-152.69;51.38
66398;BME280;54877;51.504;3.894;2023-12-22T18:22:16;123795.47;;;-152.63;51.48
66398;BME280;54877;51.504;3.894;2023-12-22T18:24:41;123800.94;;;-152.65;51.38
66398;BME280;54877;51.504;3.894;2023-12-22T18:27:06;123809.13;;;-152.66;51.40
66398;BME280;54877;51.504;3.894;2023-12-22T18:29:31;123820.03;;;-152.67;51.32
66398;BME280;54877;51.504;3.894;2023-12-22T18:31:56;123811.84;;;-152.67;51.44
66398;BME280;54877;51.504;3.894;2023-12-22T18:34:22;123828.25;;;-152.73;51.53
66398;BME280;54877;51.504;3.894;2023-12-22T18:36:47;123830.94;;;-152.66;51.49
66398;BME280;54877;51.504;3.894;2023-12-22T18:39:12;123817.31;;;-152.68;51.50
66398;BME280;54877;51.504;3.894;2023-12-22T18:41:37;123836.41;;;-152.70;51.54
66398;BME280;54877;51.504;3.894;2023-12-22T18:44:03;123844.59;;;-152.71;51.58
66398;BME280;54877;51.504;3.894;2023-12-22T18:46:28;123850.09;;;-152.81;51.57
66398;BME280;54877;51.504;3.894;2023-12-22T18:48:53;123841.91;;;-152.76;51.56
66398;BME280;54877;51.504;3.894;2023-12-22T18:51:18;123844.66;;;-152.81;51.48
66398;BME280;54877;51.504;3.894;2023-12-22T19:19:46;123907.34;;;-152.81;51.34
66398;BME280;54877;51.504;3.894;2023-12-22T19:22:56;123920.94;;;-152.80;51.18
66398;BME280;54877;51.504;3.894;2023-12-22T19:26:05;123907.31;;;-152.79;51.17
66398;BME280;54877;51.504;3.894;2023-12-22T19:38:23;123929.09;;;-152.77;51.14
66398;BME280;54877;51.504;3.894;2023-12-22T19:44:04;123918.19;;;-152.75;50.90
66398;BME280;54877;51.504;3.894;2023-12-22T19:47:24;123931.84;;;-152.77;51.13
66398;BME280;54877;51.504;3.894;2023-12-22T19:50:30;123934.53;;;-152.76;51.28
66398;BME280;54877;51.504;3.894;2023-12-22T19:53:38;123937.28;;;-152.78;51.29
66398;BME280;54877;51.504;3.894;2023-12-22T20:04:45;123948.22;;;-152.81;51.23
66398;BME280;54877;51.504;3.894;2023-12-22T20:52:36;123997.31;;;-152.86;51.65
66398;BME280;54877;51.504;3.894;2023-12-22T20:55:47;124000.00;;;-152.82;51.71
66398;BME280;54877;51.504;3.894;2023-12-22T20:58:23;123991.81;;;-152.80;51.70
66398;BME280;54877;51.504;3.894;2023-12-22T21:25:16;124032.72;;;-152.83;51.74
66398;BME280;54877;51.504;3.894;2023-12-22T21:28:44;124038.16;;;-152.85;51.87
66398;BME280;54877;51.504;3.894;2023-12-22T21:31:50;124024.53;;;-152.82;51.74
66398;BME280;54877;51.504;3.894;2023-12-22T21:34:52;124051.84;;;-152.91;51.93
66398;BME280;54877;51.504;3.894;2023-12-22T21:55:40;124057.25;;;-152.85;52.30
66398;BME280;54877;51.504;3.894;2023-12-22T21:58:06;124073.63;;;-152.87;52.42
66398;BME280;54877;51.504;3.894;2023-12-22T22:00:31;124062.72;;;-152.87;52.53
66398;BME280;54877;51.504;3.894;2023-12-22T22:02:56;124084.53;;;-152.91;52.57
66398;BME280;54877;51.504;3.894;2023-12-22T22:05:22;124090.00;;;-152.92;52.76
66398;BME280;54877;51.504;3.894;2023-12-22T22:07:47;124076.31;;;-152.83;52.57
66398;BME280;54877;51.504;3.894;2023-12-22T22:10:12;124079.03;;;-152.82;52.47
66398;BME280;54877;51.504;3.894;2023-12-22T22:12:37;124057.19;;;-152.77;52.48
66398;BME280;54877;51.504;3.894;2023-12-22T22:15:03;124084.50;;;-152.85;52.30
66398;BME280;54877;51.504;3.894;2023-12-22T22:17:28;124079.03;;;-152.85;52.16
66398;BME280;54877;51.504;3.894;2023-12-22T22:19:53;124081.78;;;-152.85;52.00
66398;BME280;54877;51.504;3.894;2023-12-22T22:22:19;124089.97;;;-152.89;51.86
66398;BME280;54877;51.504;3.894;2023-12-22T22:24:44;124089.97;;;-152.88;51.81
66398;BME280;54877;51.504;3.894;2023-12-22T22:27:09;124073.56;;;-152.79;51.69
66398;BME280;54877;51.504;3.894;2023-12-22T22:29:35;124079.00;;;-152.80;51.58
66398;BME280;54877;51.504;3.894;2023-12-22T22:32:00;124068.06;;;-152.71;51.40
66398;BME280;54877;51.504;3.894;2023-12-22T22:34:25;124078.97;;;-152.72;51.41
66398;BME280;54877;51.504;3.894;2023-12-22T22:36:50;124095.34;;;-152.76;51.54
66398;BME280;54877;51.504;3.894;2023-12-22T22:39:16;124089.88;;;-152.74;51.75
66398;BME280;54877;51.504;3.894;2023-12-22T22:41:41;124073.47;;;-152.65;51.65
66398;BME280;54877;51.504;3.894;2023-12-22T22:44:06;124081.69;;;-152.72;51.84
66398;BME280;54877;51.504;3.894;2023-12-22T22:46:31;124089.88;;;-152.75;51.91